sensor_id;sensor_type;location;lat;lon;timestamp;P1;durP1;ratioP1;P2;durP2;ratioP2
24897;SDS011;12957;49.434;8.684;2023-12-29T00:01:21;8.05;;;4.97;;
24897;SDS011;12957;49.434;8.684;2023-12-29T00:03:47;8.48;;;5.43;;
24897;SDS011;12957;49.434;8.684;2023-12-29T00:06:12;6.32;;;4.90;;
24897;SDS011;12957;49.434;8.684;2023-12-29T00:08:37;5.45;;;4.68;;
24897;SDS011;12957;49.434;8.684;2023-12-29T00:11:03;6.35;;;5.22;;
24897;SDS011;12957;49.434;8.684;2023-12-29T00:13:29;7.82;;;4.90;;
24897;SDS011;12957;49.434;8.684;2023-12-29T00:15:55;6.43;;;5.10;;
24897;SDS011;12957;49.434;8.684;2023-12-29T00:18:21;5.97;;;5.10;;
24897;SDS011;12957;49.434;8.684;2023-12-29T00:20:47;9.30;;;6.38;;
24897;SDS011;12957;49.434;8.684;2023-12-29T00:23:13;7.57;;;5.13;;
24897;SDS011;12957;49.434;8.684;2023-12-29T00:25:38;7.45;;;5.38;;
24897;SDS011;12957;49.434;8.684;2023-12-29T00:28:04;9.10;;;5.03;;
24897;SDS011;12957;49.434;8.684;2023-12-29T00:30:30;6.30;;;5.45;;
24897;SDS011;12957;49.434;8.684;2023-12-29T00:32:55;6.97;;;4.93;;
24897;SDS011;12957;49.434;8.684;2023-12-29T00:35:21;8.70;;;5.50;;
24897;SDS011;12957;49.434;8.684;2023-12-29T00:37:47;8.50;;;5.68;;
24897;SDS011;12957;49.434;8.684;2023-12-29T00:40:12;7.60;;;5.32;;
24897;SDS011;12957;49.434;8.684;2023-12-29T00:42:38;6.97;;;5.38;;
24897;SDS011;12957;49.434;8.684;2023-12-29T00:45:04;10.18;;;6.30;;
24897;SDS011;12957;49.434;8.684;2023-12-29T00:47:30;12.10;;;6.20;;
24897;SDS011;12957;49.434;8.684;2023-12-29T00:49:55;8.40;;;6.05;;
24897;SDS011;12957;49.434;8.684;2023-12-29T00:52:21;7.50;;;5.65;;
24897;SDS011;12957;49.434;8.684;2023-12-29T00:54:46;8.65;;;5.38;;
24897;SDS011;12957;49.434;8.684;2023-12-29T00:57:12;9.05;;;5.50;;
24897;SDS011;12957;49.434;8.684;2023-12-29T00:59:37;8.00;;;5.78;;
24897;SDS011;12957;49.434;8.684;2023-12-29T01:02:05;9.07;;;5.95;;
24897;SDS011;12957;49.434;8.684;2023-12-29T01:04:30;8.32;;;5.50;;
24897;SDS011;12957;49.434;8.684;2023-12-29T01:06:56;10.50;;;5.25;;
24897;SDS011;12957;49.434;8.684;2023-12-29T01:09:21;6.22;;;5.28;;
24897;SDS011;12957;49.434;8.684;2023-12-29T01:11:47;7.90;;;5.50;;
24897;SDS011;12957;49.434;8.684;2023-12-29T01:14:12;7.20;;;5.00;;
24897;SDS011;12957;49.434;8.684;2023-12-29T01:16:38;10.50;;;5.90;;
24897;SDS011;12957;49.434;8.684;2023-12-29T01:19:04;8.02;;;5.70;;
24897;SDS011;12957;49.434;8.684;2023-12-29T01:21:30;8.13;;;5.80;;
24897;SDS011;12957;49.434;8.684;2023-12-29T01:23:59;8.27;;;4.88;;
24897;SDS011;12957;49.434;8.684;2023-12-29T01:26:32;6.90;;;5.00;;
24897;SDS011;12957;49.434;8.684;2023-12-29T01:29:02;5.93;;;4.90;;
24897;SDS011;12957;49.434;8.684;2023-12-29T01:31:30;10.73;;;5.53;;
24897;SDS011;12957;49.434;8.684;2023-12-29T01:33:56;6.95;;;5.15;;
24897;SDS011;12957;49.434;8.684;2023-12-29T01:36:21;7.25;;;5.20;;
24897;SDS011;12957;49.434;8.684;2023-12-29T01:38:47;8.13;;;5.07;;
24897;SDS011;12957;49.434;8.684;2023-12-29T01:41:13;6.88;;;5.53;;
24897;SDS011;12957;49.434;8.684;2023-12-29T01:46:26;7.07;;;5.40;;
24897;SDS011;12957;49.434;8.684;2023-12-29T01:48:53;9.80;;;5.00;;
24897;SDS011;12957;49.434;8.684;2023-12-29T01:51:20;12.35;;;6.03;;
24897;SDS011;12957;49.434;8.684;2023-12-29T01:53:47;8.45;;;5.53;;
24897;SDS011;12957;49.434;8.684;2023-12-29T01:56:13;8.65;;;5.70;;
24897;SDS011;12957;49.434;8.684;2023-12-29T01:58:38;12.63;;;5.25;;
24897;SDS011;12957;49.434;8.684;2023-12-29T02:01:04;8.75;;;6.20;;
24897;SDS011;12957;49.434;8.684;2023-12-29T02:03:30;8.52;;;5.82;;
24897;SDS011;12957;49.434;8.684;2023-12-29T02:05:55;10.75;;;6.20;;
24897;SDS011;12957;49.434;8.684;2023-12-29T02:08:22;9.38;;;6.40;;
24897;SDS011;12957;49.434;8.684;2023-12-29T02:10:48;9.50;;;5.88;;
24897;SDS011;12957;49.434;8.684;2023-12-29T02:13:14;7.68;;;6.00;;
24897;SDS011;12957;49.434;8.684;2023-12-29T02:15:39;11.02;;;6.03;;
24897;SDS011;12957;49.434;8.684;2023-12-29T02:18:06;11.30;;;6.13;;
24897;SDS011;12957;49.434;8.684;2023-12-29T02:20:31;8.38;;;6.22;;
24897;SDS011;12957;49.434;8.684;2023-12-29T02:22:57;7.68;;;5.90;;
24897;SDS011;12957;49.434;8.684;2023-12-29T02:25:22;7.80;;;6.13;;
24897;SDS011;12957;49.434;8.684;2023-12-29T02:30:43;9.98;;;6.25;;
24897;SDS011;12957;49.434;8.684;2023-12-29T02:33:18;10.25;;;6.40;;
24897;SDS011;12957;49.434;8.684;2023-12-29T02:35:45;10.45;;;6.53;;
24897;SDS011;12957;49.434;8.684;2023-12-29T02:38:11;9.43;;;6.65;;
24897;SDS011;12957;49.434;8.684;2023-12-29T02:40:37;8.15;;;6.03;;
24897;SDS011;12957;49.434;8.684;2023-12-29T02:43:03;9.90;;;6.10;;
24897;SDS011;12957;49.434;8.684;2023-12-29T02:45:29;11.25;;;6.70;;
24897;SDS011;12957;49.434;8.684;2023-12-29T02:47:54;9.45;;;6.05;;
24897;SDS011;12957;49.434;8.684;2023-12-29T02:50:19;8.88;;;5.65;;
24897;SDS011;12957;49.434;8.684;2023-12-29T02:52:45;8.45;;;6.35;;
24897;SDS011;12957;49.434;8.684;2023-12-29T02:55:10;6.35;;;5.47;;
24897;SDS011;12957;49.434;8.684;2023-12-29T02:57:36;9.50;;;6.32;;
24897;SDS011;12957;49.434;8.684;2023-12-29T03:00:03;10.95;;;6.80;;
24897;SDS011;12957;49.434;8.684;2023-12-29T03:02:29;8.23;;;5.72;;
24897;SDS011;12957;49.434;8.684;2023-12-29T03:04:54;6.88;;;5.63;;
24897;SDS011;12957;49.434;8.684;2023-12-29T03:07:20;9.65;;;5.97;;
24897;SDS011;12957;49.434;8.684;2023-12-29T03:09:45;14.90;;;6.10;;
24897;SDS011;12957;49.434;8.684;2023-12-29T03:12:11;10.68;;;6.28;;
24897;SDS011;12957;49.434;8.684;2023-12-29T03:14:36;9.25;;;5.93;;
24897;SDS011;12957;49.434;8.684;2023-12-29T03:17:02;7.75;;;5.97;;
24897;SDS011;12957;49.434;8.684;2023-12-29T03:19:27;8.30;;;6.15;;
24897;SDS011;12957;49.434;8.684;2023-12-29T03:21:53;11.18;;;6.40;;
24897;SDS011;12957;49.434;8.684;2023-12-29T03:24:19;8.88;;;6.25;;
24897;SDS011;12957;49.434;8.684;2023-12-29T03:26:44;9.48;;;6.13;;
24897;SDS011;12957;49.434;8.684;2023-12-29T03:29:10;9.23;;;6.80;;
24897;SDS011;12957;49.434;8.684;2023-12-29T03:31:36;10.80;;;6.35;;
24897;SDS011;12957;49.434;8.684;2023-12-29T03:34:01;9.65;;;6.88;;
24897;SDS011;12957;49.434;8.684;2023-12-29T03:36:27;13.27;;;6.53;;
24897;SDS011;12957;49.434;8.684;2023-12-29T03:38:52;13.52;;;6.35;;
24897;SDS011;12957;49.434;8.684;2023-12-29T03:41:18;10.18;;;6.70;;
24897;SDS011;12957;49.434;8.684;2023-12-29T03:43:44;8.50;;;6.13;;
24897;SDS011;12957;49.434;8.684;2023-12-29T03:46:19;10.05;;;6.50;;
24897;SDS011;12957;49.434;8.684;2023-12-29T03:48:45;10.85;;;5.95;;
24897;SDS011;12957;49.434;8.684;2023-12-29T03:51:11;8.32;;;5.93;;
24897;SDS011;12957;49.434;8.684;2023-12-29T03:53:37;8.27;;;6.10;;
24897;SDS011;12957;49.434;8.684;2023-12-29T03:56:09;11.27;;;6.38;;
24897;SDS011;12957;49.434;8.684;2023-12-29T03:58:35;9.27;;;6.22;;
24897;SDS011;12957;49.434;8.684;2023-12-29T04:01:01;7.40;;;6.03;;
24897;SDS011;12957;49.434;8.684;2023-12-29T04:03:26;11.60;;;6.60;;
24897;SDS011;12957;49.434;8.684;2023-12-29T04:05:52;10.73;;;7.30;;
24897;SDS011;12957;49.434;8.684;2023-12-29T04:08:17;10.25;;;6.95;;
24897;SDS011;12957;49.434;8.684;2023-12-29T04:10:43;8.13;;;6.35;;
24897;SDS011;12957;49.434;8.684;2023-12-29T04:13:08;10.55;;;6.75;;
24897;SDS011;12957;49.434;8.684;2023-12-29T04:15:34;9.83;;;7.40;;
24897;SDS011;12957;49.434;8.684;2023-12-29T04:17:59;11.68;;;7.47;;
24897;SDS011;12957;49.434;8.684;2023-12-29T04:20:25;12.00;;;7.57;;
24897;SDS011;12957;49.434;8.684;2023-12-29T04:22:50;19.83;;;7.20;;
24897;SDS011;12957;49.434;8.684;2023-12-29T04:25:16;11.88;;;7.47;;
24897;SDS011;12957;49.434;8.684;2023-12-29T04:27:41;11.47;;;6.97;;
24897;SDS011;12957;49.434;8.684;2023-12-29T04:30:07;11.25;;;7.70;;
24897;SDS011;12957;49.434;8.684;2023-12-29T04:32:32;10.00;;;7.30;;
24897;SDS011;12957;49.434;8.684;2023-12-29T04:34:58;11.52;;;7.30;;
24897;SDS011;12957;49.434;8.684;2023-12-29T04:37:23;9.75;;;7.20;;
24897;SDS011;12957;49.434;8.684;2023-12-29T04:39:49;10.35;;;6.93;;
24897;SDS011;12957;49.434;8.684;2023-12-29T04:42:14;12.18;;;7.85;;
24897;SDS011;12957;49.434;8.684;2023-12-29T04:44:40;12.20;;;7.32;;
24897;SDS011;12957;49.434;8.684;2023-12-29T04:47:06;14.60;;;7.05;;
24897;SDS011;12957;49.434;8.684;2023-12-29T04:49:32;12.38;;;7.43;;
24897;SDS011;12957;49.434;8.684;2023-12-29T04:51:58;9.52;;;7.20;;
24897;SDS011;12957;49.434;8.684;2023-12-29T04:54:24;8.38;;;6.35;;
24897;SDS011;12957;49.434;8.684;2023-12-29T04:56:49;10.18;;;6.75;;
24897;SDS011;12957;49.434;8.684;2023-12-29T04:59:15;8.98;;;6.03;;
24897;SDS011;12957;49.434;8.684;2023-12-29T05:01:41;8.60;;;5.78;;
24897;SDS011;12957;49.434;8.684;2023-12-29T05:04:06;9.55;;;6.03;;
24897;SDS011;12957;49.434;8.684;2023-12-29T05:06:32;8.48;;;6.00;;
24897;SDS011;12957;49.434;8.684;2023-12-29T05:08:57;6.88;;;6.18;;
24897;SDS011;12957;49.434;8.684;2023-12-29T05:11:23;9.95;;;5.90;;
24897;SDS011;12957;49.434;8.684;2023-12-29T05:13:48;8.93;;;5.97;;
24897;SDS011;12957;49.434;8.684;2023-12-29T05:16:14;10.35;;;6.57;;
24897;SDS011;12957;49.434;8.684;2023-12-29T05:18:39;11.35;;;6.55;;
24897;SDS011;12957;49.434;8.684;2023-12-29T05:21:05;8.45;;;6.45;;
24897;SDS011;12957;49.434;8.684;2023-12-29T05:23:30;10.38;;;6.05;;
24897;SDS011;12957;49.434;8.684;2023-12-29T05:25:56;10.80;;;6.40;;
24897;SDS011;12957;49.434;8.684;2023-12-29T05:28:22;10.35;;;5.63;;
24897;SDS011;12957;49.434;8.684;2023-12-29T05:30:47;8.27;;;5.82;;
24897;SDS011;12957;49.434;8.684;2023-12-29T05:33:13;11.18;;;6.20;;
24897;SDS011;12957;49.434;8.684;2023-12-29T05:35:38;13.13;;;5.95;;
24897;SDS011;12957;49.434;8.684;2023-12-29T05:38:04;8.27;;;5.82;;
24897;SDS011;12957;49.434;8.684;2023-12-29T05:40:29;8.25;;;6.25;;
24897;SDS011;12957;49.434;8.684;2023-12-29T05:42:55;8.90;;;5.95;;
24897;SDS011;12957;49.434;8.684;2023-12-29T05:45:20;6.80;;;5.80;;
24897;SDS011;12957;49.434;8.684;2023-12-29T05:47:46;9.68;;;5.90;;
24897;SDS011;12957;49.434;8.684;2023-12-29T05:50:11;8.15;;;5.63;;
24897;SDS011;12957;49.434;8.684;2023-12-29T05:52:37;10.50;;;5.85;;
24897;SDS011;12957;49.434;8.684;2023-12-29T05:55:02;9.45;;;5.88;;
24897;SDS011;12957;49.434;8.684;2023-12-29T05:57:28;8.00;;;5.53;;
24897;SDS011;12957;49.434;8.684;2023-12-29T05:59:53;8.93;;;5.95;;
24897;SDS011;12957;49.434;8.684;2023-12-29T06:02:19;7.10;;;5.45;;
24897;SDS011;12957;49.434;8.684;2023-12-29T06:04:44;11.40;;;5.68;;
24897;SDS011;12957;49.434;8.684;2023-12-29T06:07:10;11.65;;;6.20;;
24897;SDS011;12957;49.434;8.684;2023-12-29T06:09:36;10.95;;;5.95;;
24897;SDS011;12957;49.434;8.684;2023-12-29T06:12:01;8.02;;;5.63;;
24897;SDS011;12957;49.434;8.684;2023-12-29T06:14:27;10.00;;;5.93;;
24897;SDS011;12957;49.434;8.684;2023-12-29T06:16:52;6.97;;;4.78;;
24897;SDS011;12957;49.434;8.684;2023-12-29T06:19:18;8.90;;;5.63;;
24897;SDS011;12957;49.434;8.684;2023-12-29T06:21:43;7.28;;;5.38;;
24897;SDS011;12957;49.434;8.684;2023-12-29T06:24:09;7.57;;;5.35;;
24897;SDS011;12957;49.434;8.684;2023-12-29T06:26:36;7.25;;;5.45;;
24897;SDS011;12957;49.434;8.684;2023-12-29T06:29:06;8.85;;;5.53;;
24897;SDS011;12957;49.434;8.684;2023-12-29T06:31:32;8.60;;;5.70;;
24897;SDS011;12957;49.434;8.684;2023-12-29T06:33:58;9.20;;;5.40;;
24897;SDS011;12957;49.434;8.684;2023-12-29T06:36:25;7.07;;;5.43;;
24897;SDS011;12957;49.434;8.684;2023-12-29T06:38:50;10.23;;;5.45;;
24897;SDS011;12957;49.434;8.684;2023-12-29T06:41:17;6.28;;;5.40;;
24897;SDS011;12957;49.434;8.684;2023-12-29T06:43:42;6.38;;;5.45;;
24897;SDS011;12957;49.434;8.684;2023-12-29T06:46:08;8.25;;;5.75;;
24897;SDS011;12957;49.434;8.684;2023-12-29T06:48:34;7.72;;;5.72;;
24897;SDS011;12957;49.434;8.684;2023-12-29T06:50:59;9.40;;;5.13;;
24897;SDS011;12957;49.434;8.684;2023-12-29T06:53:24;9.98;;;5.70;;
24897;SDS011;12957;49.434;8.684;2023-12-29T06:55:50;7.50;;;5.32;;
24897;SDS011;12957;49.434;8.684;2023-12-29T06:58:16;8.10;;;5.63;;
24897;SDS011;12957;49.434;8.684;2023-12-29T07:00:41;8.82;;;5.35;;
24897;SDS011;12957;49.434;8.684;2023-12-29T07:03:07;7.63;;;5.90;;
24897;SDS011;12957;49.434;8.684;2023-12-29T07:05:32;6.68;;;5.53;;
24897;SDS011;12957;49.434;8.684;2023-12-29T07:07:58;6.47;;;5.45;;
24897;SDS011;12957;49.434;8.684;2023-12-29T07:10:23;6.95;;;5.15;;
24897;SDS011;12957;49.434;8.684;2023-12-29T07:12:49;7.15;;;5.25;;
24897;SDS011;12957;49.434;8.684;2023-12-29T07:15:15;7.57;;;5.38;;
24897;SDS011;12957;49.434;8.684;2023-12-29T07:17:41;10.35;;;5.10;;
24897;SDS011;12957;49.434;8.684;2023-12-29T07:20:06;8.43;;;5.13;;
24897;SDS011;12957;49.434;8.684;2023-12-29T07:22:32;7.70;;;5.00;;
24897;SDS011;12957;49.434;8.684;2023-12-29T07:24:58;5.95;;;5.35;;
24897;SDS011;12957;49.434;8.684;2023-12-29T07:27:23;6.00;;;4.15;;
24897;SDS011;12957;49.434;8.684;2023-12-29T07:29:49;6.10;;;4.88;;
24897;SDS011;12957;49.434;8.684;2023-12-29T07:32:14;6.75;;;4.90;;
24897;SDS011;12957;49.434;8.684;2023-12-29T07:34:40;5.28;;;4.60;;
24897;SDS011;12957;49.434;8.684;2023-12-29T07:37:06;5.82;;;4.63;;
24897;SDS011;12957;49.434;8.684;2023-12-29T07:39:31;5.13;;;4.63;;
24897;SDS011;12957;49.434;8.684;2023-12-29T07:41:57;7.25;;;4.43;;
24897;SDS011;12957;49.434;8.684;2023-12-29T07:44:22;6.95;;;4.50;;
24897;SDS011;12957;49.434;8.684;2023-12-29T07:46:48;6.30;;;4.55;;
24897;SDS011;12957;49.434;8.684;2023-12-29T07:49:14;8.82;;;5.05;;
24897;SDS011;12957;49.434;8.684;2023-12-29T07:51:42;6.72;;;4.80;;
24897;SDS011;12957;49.434;8.684;2023-12-29T07:54:10;7.30;;;4.50;;
24897;SDS011;12957;49.434;8.684;2023-12-29T07:56:36;5.55;;;4.15;;
24897;SDS011;12957;49.434;8.684;2023-12-29T07:59:02;5.10;;;4.05;;
24897;SDS011;12957;49.434;8.684;2023-12-29T08:01:28;5.55;;;4.65;;
24897;SDS011;12957;49.434;8.684;2023-12-29T08:03:54;5.88;;;4.88;;
24897;SDS011;12957;49.434;8.684;2023-12-29T08:06:19;7.03;;;4.65;;
24897;SDS011;12957;49.434;8.684;2023-12-29T08:08:45;5.47;;;4.45;;
24897;SDS011;12957;49.434;8.684;2023-12-29T08:11:19;7.57;;;4.65;;
24897;SDS011;12957;49.434;8.684;2023-12-29T08:13:46;5.93;;;4.18;;
24897;SDS011;12957;49.434;8.684;2023-12-29T08:16:12;8.20;;;4.38;;
24897;SDS011;12957;49.434;8.684;2023-12-29T08:18:38;5.05;;;4.35;;
24897;SDS011;12957;49.434;8.684;2023-12-29T08:21:03;6.65;;;3.85;;
24897;SDS011;12957;49.434;8.684;2023-12-29T08:23:29;3.92;;;3.60;;
24897;SDS011;12957;49.434;8.684;2023-12-29T08:25:56;4.82;;;3.92;;
24897;SDS011;12957;49.434;8.684;2023-12-29T08:28:23;4.13;;;3.80;;
24897;SDS011;12957;49.434;8.684;2023-12-29T08:30:48;4.63;;;3.90;;
24897;SDS011;12957;49.434;8.684;2023-12-29T08:33:14;6.50;;;4.38;;
24897;SDS011;12957;49.434;8.684;2023-12-29T08:35:40;4.53;;;3.42;;
24897;SDS011;12957;49.434;8.684;2023-12-29T08:38:06;5.15;;;3.70;;
24897;SDS011;12957;49.434;8.684;2023-12-29T08:40:31;5.95;;;3.42;;
24897;SDS011;12957;49.434;8.684;2023-12-29T08:42:57;3.70;;;3.30;;
24897;SDS011;12957;49.434;8.684;2023-12-29T08:45:22;4.57;;;3.95;;
24897;SDS011;12957;49.434;8.684;2023-12-29T08:47:48;4.60;;;3.70;;
24897;SDS011;12957;49.434;8.684;2023-12-29T08:50:13;3.90;;;3.50;;
24897;SDS011;12957;49.434;8.684;2023-12-29T08:52:40;7.10;;;3.47;;
24897;SDS011;12957;49.434;8.684;2023-12-29T08:55:05;6.93;;;3.88;;
24897;SDS011;12957;49.434;8.684;2023-12-29T08:57:31;4.38;;;3.97;;
24897;SDS011;12957;49.434;8.684;2023-12-29T08:59:57;3.72;;;3.42;;
24897;SDS011;12957;49.434;8.684;2023-12-29T09:02:22;4.03;;;3.53;;
24897;SDS011;12957;49.434;8.684;2023-12-29T09:04:48;5.25;;;3.90;;
24897;SDS011;12957;49.434;8.684;2023-12-29T09:07:13;4.15;;;3.53;;
24897;SDS011;12957;49.434;8.684;2023-12-29T09:09:39;4.20;;;3.80;;
24897;SDS011;12957;49.434;8.684;2023-12-29T09:12:04;3.92;;;3.53;;
24897;SDS011;12957;49.434;8.684;2023-12-29T09:14:30;5.22;;;4.05;;
24897;SDS011;12957;49.434;8.684;2023-12-29T09:16:57;4.95;;;3.97;;
24897;SDS011;12957;49.434;8.684;2023-12-29T09:19:23;3.65;;;3.35;;
24897;SDS011;12957;49.434;8.684;2023-12-29T09:21:48;4.10;;;3.70;;
24897;SDS011;12957;49.434;8.684;2023-12-29T09:24:14;3.95;;;3.40;;
24897;SDS011;12957;49.434;8.684;2023-12-29T09:26:39;3.83;;;3.53;;
24897;SDS011;12957;49.434;8.684;2023-12-29T09:29:05;3.63;;;3.22;;
24897;SDS011;12957;49.434;8.684;2023-12-29T09:31:30;4.97;;;3.63;;
24897;SDS011;12957;49.434;8.684;2023-12-29T09:33:56;4.90;;;3.80;;
24897;SDS011;12957;49.434;8.684;2023-12-29T09:36:22;3.92;;;3.63;;
24897;SDS011;12957;49.434;8.684;2023-12-29T09:38:47;4.88;;;3.50;;
24897;SDS011;12957;49.434;8.684;2023-12-29T09:41:14;8.27;;;4.50;;
24897;SDS011;12957;49.434;8.684;2023-12-29T09:43:40;4.32;;;3.83;;
24897;SDS011;12957;49.434;8.684;2023-12-29T09:46:05;4.32;;;3.92;;
24897;SDS011;12957;49.434;8.684;2023-12-29T09:48:32;5.85;;;3.83;;
24897;SDS011;12957;49.434;8.684;2023-12-29T09:50:58;3.83;;;3.38;;
24897;SDS011;12957;49.434;8.684;2023-12-29T09:53:24;5.85;;;3.35;;
24897;SDS011;12957;49.434;8.684;2023-12-29T09:55:51;3.80;;;3.47;;
24897;SDS011;12957;49.434;8.684;2023-12-29T09:58:17;5.50;;;4.10;;
24897;SDS011;12957;49.434;8.684;2023-12-29T10:00:46;3.50;;;3.20;;
24897;SDS011;12957;49.434;8.684;2023-12-29T10:03:11;6.97;;;3.95;;
24897;SDS011;12957;49.434;8.684;2023-12-29T10:05:37;4.95;;;3.85;;
24897;SDS011;12957;49.434;8.684;2023-12-29T10:08:03;3.80;;;3.45;;
24897;SDS011;12957;49.434;8.684;2023-12-29T10:10:30;4.13;;;3.10;;
24897;SDS011;12957;49.434;8.684;2023-12-29T10:12:56;3.80;;;3.22;;
24897;SDS011;12957;49.434;8.684;2023-12-29T10:15:31;3.15;;;2.78;;
24897;SDS011;12957;49.434;8.684;2023-12-29T10:20:50;4.50;;;2.78;;
24897;SDS011;12957;49.434;8.684;2023-12-29T10:23:47;3.58;;;3.10;;
24897;SDS011;12957;49.434;8.684;2023-12-29T10:26:20;5.63;;;3.17;;
24897;SDS011;12957;49.434;8.684;2023-12-29T10:28:47;3.30;;;2.50;;
24897;SDS011;12957;49.434;8.684;2023-12-29T10:31:14;3.10;;;2.55;;
24897;SDS011;12957;49.434;8.684;2023-12-29T10:33:41;2.75;;;2.50;;
24897;SDS011;12957;49.434;8.684;2023-12-29T10:36:06;4.18;;;2.75;;
24897;SDS011;12957;49.434;8.684;2023-12-29T10:38:33;2.97;;;2.70;;
24897;SDS011;12957;49.434;8.684;2023-12-29T10:43:40;3.55;;;2.85;;
24897;SDS011;12957;49.434;8.684;2023-12-29T10:46:06;2.67;;;2.47;;
24897;SDS011;12957;49.434;8.684;2023-12-29T10:48:35;4.00;;;2.40;;
24897;SDS011;12957;49.434;8.684;2023-12-29T10:51:04;2.80;;;2.58;;
24897;SDS011;12957;49.434;8.684;2023-12-29T10:53:33;3.25;;;2.50;;
24897;SDS011;12957;49.434;8.684;2023-12-29T10:55:59;6.20;;;3.00;;
24897;SDS011;12957;49.434;8.684;2023-12-29T10:58:28;4.40;;;2.38;;
24897;SDS011;12957;49.434;8.684;2023-12-29T11:00:55;4.10;;;2.63;;
24897;SDS011;12957;49.434;8.684;2023-12-29T11:03:21;3.10;;;2.33;;
24897;SDS011;12957;49.434;8.684;2023-12-29T11:05:47;3.75;;;2.80;;
24897;SDS011;12957;49.434;8.684;2023-12-29T11:08:19;4.63;;;2.85;;
24897;SDS011;12957;49.434;8.684;2023-12-29T11:10:49;6.13;;;2.67;;
24897;SDS011;12957;49.434;8.684;2023-12-29T11:13:15;3.28;;;2.30;;
24897;SDS011;12957;49.434;8.684;2023-12-29T11:15:44;4.22;;;2.80;;
24897;SDS011;12957;49.434;8.684;2023-12-29T11:18:13;2.35;;;2.20;;
24897;SDS011;12957;49.434;8.684;2023-12-29T11:20:40;2.83;;;2.45;;
24897;SDS011;12957;49.434;8.684;2023-12-29T11:23:06;3.85;;;2.45;;
24897;SDS011;12957;49.434;8.684;2023-12-29T11:25:33;2.22;;;2.03;;
24897;SDS011;12957;49.434;8.684;2023-12-29T11:27:58;2.80;;;2.40;;
24897;SDS011;12957;49.434;8.684;2023-12-29T11:30:24;4.55;;;2.83;;
24897;SDS011;12957;49.434;8.684;2023-12-29T11:33:03;3.72;;;2.50;;
24897;SDS011;12957;49.434;8.684;2023-12-29T11:35:42;6.25;;;2.55;;
24897;SDS011;12957;49.434;8.684;2023-12-29T11:38:19;2.28;;;2.08;;
24897;SDS011;12957;49.434;8.684;2023-12-29T11:44:00;3.17;;;2.20;;
24897;SDS011;12957;49.434;8.684;2023-12-29T11:46:39;3.28;;;2.35;;
24897;SDS011;12957;49.434;8.684;2023-12-29T11:49:08;4.15;;;2.20;;
24897;SDS011;12957;49.434;8.684;2023-12-29T11:51:40;4.20;;;2.50;;
24897;SDS011;12957;49.434;8.684;2023-12-29T11:54:08;2.67;;;2.17;;
24897;SDS011;12957;49.434;8.684;2023-12-29T11:56:34;4.70;;;2.13;;
24897;SDS011;12957;49.434;8.684;2023-12-29T12:01:39;2.50;;;2.15;;
24897;SDS011;12957;49.434;8.684;2023-12-29T12:04:07;3.03;;;2.42;;
24897;SDS011;12957;49.434;8.684;2023-12-29T12:06:58;2.47;;;2.28;;
24897;SDS011;12957;49.434;8.684;2023-12-29T12:09:24;4.00;;;1.88;;
24897;SDS011;12957;49.434;8.684;2023-12-29T12:11:49;2.28;;;1.30;;
24897;SDS011;12957;49.434;8.684;2023-12-29T12:14:49;1.40;;;1.30;;
24897;SDS011;12957;49.434;8.684;2023-12-29T12:17:10;2.13;;;1.92;;
24897;SDS011;12957;49.434;8.684;2023-12-29T12:19:35;3.42;;;1.50;;
24897;SDS011;12957;49.434;8.684;2023-12-29T12:22:01;2.63;;;1.30;;
24897;SDS011;12957;49.434;8.684;2023-12-29T12:24:27;4.53;;;1.50;;
24897;SDS011;12957;49.434;8.684;2023-12-29T12:26:53;2.17;;;1.55;;
24897;SDS011;12957;49.434;8.684;2023-12-29T12:29:22;2.05;;;1.50;;
24897;SDS011;12957;49.434;8.684;2023-12-29T12:31:57;1.60;;;1.50;;
24897;SDS011;12957;49.434;8.684;2023-12-29T12:34:22;2.17;;;1.75;;
24897;SDS011;12957;49.434;8.684;2023-12-29T12:36:49;3.60;;;1.50;;
24897;SDS011;12957;49.434;8.684;2023-12-29T12:39:15;1.50;;;1.40;;
24897;SDS011;12957;49.434;8.684;2023-12-29T12:41:41;1.33;;;1.25;;
24897;SDS011;12957;49.434;8.684;2023-12-29T12:44:10;1.48;;;1.38;;
24897;SDS011;12957;49.434;8.684;2023-12-29T12:49:13;2.20;;;2.03;;
24897;SDS011;12957;49.434;8.684;2023-12-29T12:51:39;1.92;;;1.73;;
24897;SDS011;12957;49.434;8.684;2023-12-29T12:54:04;2.83;;;1.75;;
24897;SDS011;12957;49.434;8.684;2023-12-29T12:56:30;2.50;;;1.98;;
24897;SDS011;12957;49.434;8.684;2023-12-29T12:58:56;2.10;;;1.80;;
24897;SDS011;12957;49.434;8.684;2023-12-29T13:01:22;1.73;;;1.63;;
24897;SDS011;12957;49.434;8.684;2023-12-29T13:03:48;2.05;;;1.75;;
24897;SDS011;12957;49.434;8.684;2023-12-29T13:06:14;7.30;;;2.25;;
24897;SDS011;12957;49.434;8.684;2023-12-29T13:08:41;9.15;;;2.58;;
24897;SDS011;12957;49.434;8.684;2023-12-29T13:11:07;2.53;;;1.52;;
24897;SDS011;12957;49.434;8.684;2023-12-29T13:13:36;1.70;;;1.45;;
24897;SDS011;12957;49.434;8.684;2023-12-29T13:16:04;1.85;;;1.70;;
24897;SDS011;12957;49.434;8.684;2023-12-29T13:18:30;1.77;;;1.67;;
24897;SDS011;12957;49.434;8.684;2023-12-29T13:20:58;3.92;;;1.70;;
24897;SDS011;12957;49.434;8.684;2023-12-29T13:23:26;1.50;;;1.40;;
24897;SDS011;12957;49.434;8.684;2023-12-29T13:25:54;1.80;;;1.70;;
24897;SDS011;12957;49.434;8.684;2023-12-29T13:28:20;1.60;;;1.50;;
24897;SDS011;12957;49.434;8.684;2023-12-29T13:30:46;2.25;;;1.92;;
24897;SDS011;12957;49.434;8.684;2023-12-29T13:33:15;2.58;;;1.90;;
24897;SDS011;12957;49.434;8.684;2023-12-29T13:36:08;2.88;;;1.95;;
24897;SDS011;12957;49.434;8.684;2023-12-29T13:41:53;4.85;;;2.50;;
24897;SDS011;12957;49.434;8.684;2023-12-29T13:44:19;2.47;;;2.10;;
24897;SDS011;12957;49.434;8.684;2023-12-29T13:46:46;2.97;;;2.22;;
24897;SDS011;12957;49.434;8.684;2023-12-29T13:49:12;1.98;;;1.80;;
24897;SDS011;12957;49.434;8.684;2023-12-29T13:51:40;2.92;;;2.10;;
24897;SDS011;12957;49.434;8.684;2023-12-29T13:54:07;2.25;;;2.00;;
24897;SDS011;12957;49.434;8.684;2023-12-29T13:56:32;4.80;;;2.00;;
24897;SDS011;12957;49.434;8.684;2023-12-29T13:58:58;2.20;;;2.00;;
24897;SDS011;12957;49.434;8.684;2023-12-29T14:01:34;2.10;;;1.90;;
24897;SDS011;12957;49.434;8.684;2023-12-29T14:04:00;1.65;;;1.35;;
24897;SDS011;12957;49.434;8.684;2023-12-29T14:06:29;1.50;;;1.40;;
24897;SDS011;12957;49.434;8.684;2023-12-29T14:08:57;1.40;;;1.40;;
24897;SDS011;12957;49.434;8.684;2023-12-29T14:11:22;1.15;;;1.15;;
24897;SDS011;12957;49.434;8.684;2023-12-29T14:13:48;1.98;;;1.50;;
24897;SDS011;12957;49.434;8.684;2023-12-29T14:16:13;1.20;;;1.20;;
24897;SDS011;12957;49.434;8.684;2023-12-29T14:21:34;2.03;;;1.63;;
24897;SDS011;12957;49.434;8.684;2023-12-29T14:24:00;1.60;;;1.50;;
24897;SDS011;12957;49.434;8.684;2023-12-29T14:26:33;1.77;;;1.60;;
24897;SDS011;12957;49.434;8.684;2023-12-29T14:29:00;2.88;;;1.95;;
24897;SDS011;12957;49.434;8.684;2023-12-29T14:31:28;1.60;;;1.50;;
24897;SDS011;12957;49.434;8.684;2023-12-29T14:33:57;2.97;;;1.70;;
24897;SDS011;12957;49.434;8.684;2023-12-29T14:36:23;2.50;;;1.50;;
24897;SDS011;12957;49.434;8.684;2023-12-29T14:38:48;2.40;;;1.95;;
24897;SDS011;12957;49.434;8.684;2023-12-29T14:41:14;2.13;;;1.60;;
24897;SDS011;12957;49.434;8.684;2023-12-29T14:43:39;2.47;;;1.67;;
24897;SDS011;12957;49.434;8.684;2023-12-29T14:46:05;2.63;;;2.00;;
24897;SDS011;12957;49.434;8.684;2023-12-29T14:48:30;3.83;;;1.77;;
24897;SDS011;12957;49.434;8.684;2023-12-29T14:50:56;2.33;;;1.40;;
24897;SDS011;12957;49.434;8.684;2023-12-29T14:53:22;1.38;;;1.38;;
24897;SDS011;12957;49.434;8.684;2023-12-29T14:55:48;2.08;;;1.55;;
24897;SDS011;12957;49.434;8.684;2023-12-29T14:58:13;1.60;;;1.50;;
24897;SDS011;12957;49.434;8.684;2023-12-29T15:00:39;1.90;;;1.80;;
24897;SDS011;12957;49.434;8.684;2023-12-29T15:03:04;3.33;;;1.60;;
24897;SDS011;12957;49.434;8.684;2023-12-29T15:05:30;1.70;;;1.60;;
24897;SDS011;12957;49.434;8.684;2023-12-29T15:07:55;3.40;;;1.98;;